Time;durP1;ratioP1;P1;durP2;ratioP2;P2;SDS_P1;SDS_P2;PMS_P1;PMS_P2;Temp;Humidity;BMP_temperature;BMP_pressure;BME280_temperature;BME280_humidity;BME280_pressure;Samples;Min_cycle;Max_cycle;Signal;HPM_P1;HPM_P2
2022/12/06 00:00:24;;;;;;;6.95;3.00;;;;;;;4.07;100.00;101957.41;5049242;28;20059;-68
2022/12/06 00:02:49;;;;;;;5.30;2.63;;;;;;;4.08;100.00;101961.69;5049430;28;20086;-68
2022/12/06 00:05:15;;;;;;;6.72;2.95;;;;;;;4.10;100.00;101967.69;5049345;28;20021;-68
2022/12/06 00:07:40;;;;;;;6.93;3.30;;;;;;;4.07;100.00;101960.88;5049832;28;20128;-68
2022/12/06 00:10:06;;;;;;;5.35;2.50;;;;;;;4.11;100.00;101964.94;5048315;28;20044;-68
2022/12/06 00:12:32;;;;;;;8.23;3.58;;;;;;;4.09;100.00;101958.13;5051770;28;20364;-68
2022/12/06 00:14:57;;;;;;;7.55;2.60;;;;;;;4.10;100.00;101960.63;5062781;28;20032;-68
2022/12/06 00:17:23;;;;;;;7.88;3.35;;;;;;;4.11;100.00;101954.38;5062581;28;20070;-68
2022/12/06 00:19:48;;;;;;;8.38;3.03;;;;;;;4.11;100.00;101959.66;5058108;28;20091;-68
2022/12/06 00:22:14;;;;;;;9.93;3.63;;;;;;;4.14;100.00;101963.84;5049308;28;20472;-68
2022/12/06 00:24:40;;;;;;;5.20;2.47;;;;;;;4.13;100.00;101962.16;5049745;28;20029;-68
2022/12/06 00:27:05;;;;;;;9.50;3.17;;;;;;;4.10;100.00;101960.63;5054210;28;20115;-68
2022/12/06 00:29:31;;;;;;;5.40;3.25;;;;;;;4.13;100.00;101956.88;5068780;28;20114;-68
2022/12/06 00:31:57;;;;;;;6.75;2.38;;;;;;;4.15;100.00;101965.53;5061445;28;20029;-68
2022/12/06 00:34:22;;;;;;;7.97;3.03;;;;;;;4.15;100.00;101961.06;5063101;28;20041;-68
2022/12/06 00:36:48;;;;;;;8.00;3.58;;;;;;;4.16;100.00;101968.00;5072751;28;20365;-68
2022/12/06 00:39:16;;;;;;;5.72;2.58;;;;;;;4.15;100.00;101957.59;5072549;28;20037;-68
2022/12/06 00:41:42;;;;;;;12.15;3.40;;;;;;;4.17;100.00;101966.25;5054467;28;20051;-68
2022/12/06 00:44:08;;;;;;;6.20;2.65;;;;;;;4.18;100.00;101954.69;5053498;28;20582;-68
2022/12/06 00:46:34;;;;;;;6.25;2.92;;;;;;;4.18;100.00;101954.69;5055900;28;20036;-68
2022/12/06 00:49:02;;;;;;;8.20;3.25;;;;;;;4.16;100.00;101956.63;5072515;28;20028;-68
2022/12/06 00:51:29;;;;;;;8.63;3.63;;;;;;;4.19;100.00;101959.00;5054684;28;20163;-68
2022/12/06 00:53:55;;;;;;;5.78;3.30;;;;;;;4.20;100.00;101963.34;5052540;28;20104;-68
2022/12/06 00:56:21;;;;;;;9.38;3.70;;;;;;;4.19;100.00;101964.28;5062754;28;20166;-68
2022/12/06 00:58:46;;;;;;;6.70;2.95;;;;;;;4.18;100.00;101955.53;5072202;28;20085;-68
2022/12/06 01:01:19;;;;;;;11.02;3.40;;;;;;;4.20;100.00;101952.78;5072163;28;20133;-68
2022/12/06 01:03:45;;;;;;;9.60;3.55;;;;;;;4.21;100.00;101957.06;5059249;28;20491;-68
2022/12/06 01:06:14;;;;;;;8.05;3.13;;;;;;;4.22;100.00;101968.47;5069952;28;20028;-68
2022/12/06 01:08:40;;;;;;;7.88;3.45;;;;;;;4.21;100.00;101967.63;5060472;28;20407;-68
2022/12/06 01:11:07;;;;;;;9.43;3.88;;;;;;;4.21;100.00;101961.53;5061437;28;20040;-68
2022/12/06 01:13:33;;;;;;;8.60;3.50;;;;;;;4.21;100.00;101962.34;5052723;28;20087;-68
2022/12/06 01:16:17;;;;;;;10.90;4.15;;;;;;;4.23;100.00;101962.25;5052916;28;20033;-68
2022/12/06 01:18:44;;;;;;;11.13;3.47;;;;;;;4.21;100.00;101959.72;5052825;28;20016;-68
2022/12/06 01:21:17;;;;;;;11.23;3.58;;;;;;;4.20;100.00;101963.34;5052595;28;20053;-68
2022/12/06 01:23:43;;;;;;;8.43;3.95;;;;;;;4.20;100.00;101955.41;5051966;28;20510;-68
2022/12/06 01:26:21;;;;;;;10.25;4.00;;;;;;;4.20;100.00;101958.06;5052692;28;20033;-68
2022/12/06 01:28:47;;;;;;;9.05;3.42;;;;;;;4.20;100.00;101951.94;5052719;28;20064;-68
2022/12/06 01:31:13;;;;;;;6.53;3.10;;;;;;;4.22;100.00;101964.06;5070103;28;20052;-68
2022/12/06 01:33:39;;;;;;;9.43;4.03;;;;;;;4.22;100.00;101955.28;5071621;28;20029;-68
2022/12/06 01:36:05;;;;;;;10.02;3.78;;;;;;;4.23;100.00;101964.88;5071663;28;20035;-68
2022/12/06 01:38:30;;;;;;;9.32;3.78;;;;;;;4.19;100.00;101959.00;5066463;28;20041;-68
2022/12/06 01:40:55;;;;;;;9.23;3.75;;;;;;;4.25;100.00;101955.03;5052418;28;20112;-68
2022/12/06 01:43:30;;;;;;;9.43;4.32;;;;;;;4.26;100.00;101961.97;5052422;28;20060;-68
2022/12/06 01:45:56;;;;;;;9.93;4.03;;;;;;;4.27;100.00;101964.50;5051367;28;20032;-68
2022/12/06 01:48:24;;;;;;;11.55;3.90;;;;;;;4.24;100.00;101953.34;5051784;28;20041;-68
2022/12/06 01:50:52;;;;;;;11.43;4.15;;;;;;;4.27;100.00;101958.38;5052305;28;20083;-68
2022/12/06 01:53:18;;;;;;;10.20;3.72;;;;;;;4.29;100.00;101951.16;5055927;28;20487;-68
2022/12/06 01:55:45;;;;;;;9.88;3.97;;;;;;;4.22;100.00;101939.44;5052180;28;20056;-68
2022/12/06 01:58:25;;;;;;;10.95;4.57;;;;;;;4.26;100.00;101940.84;5052141;28;20491;-68
2022/12/06 02:00:51;;;;;;;11.18;4.38;;;;;;;4.29;100.00;101949.34;5061276;28;20115;-68
2022/12/06 02:03:23;;;;;;;8.10;3.58;;;;;;;4.26;100.00;101943.50;5059489;28;20466;-68
2022/12/06 02:05:48;;;;;;;11.90;4.50;;;;;;;4.30;100.00;101951.03;5070437;28;20062;-68
2022/12/06 02:08:15;;;;;;;10.32;4.75;;;;;;;4.28;100.00;101937.13;5057360;28;20071;-68
2022/12/06 02:10:40;;;;;;;10.13;4.72;;;;;;;4.32;100.00;101945.63;5051830;28;20163;-68
2022/12/06 02:13:06;;;;;;;10.25;4.80;;;;;;;4.31;100.00;101941.31;5069030;28;20107;-68
2022/12/06 02:15:56;;;;;;;12.70;5.07;;;;;;;4.31;100.00;101943.94;5051686;28;20041;-68
2022/12/06 02:18:33;;;;;;;10.55;4.75;;;;;;;4.30;100.00;101947.56;5051767;28;20021;-68
2022/12/06 02:21:15;;;;;;;10.90;4.88;;;;;;;4.27;100.00;101943.38;5051525;28;20415;-68
2022/12/06 02:23:56;;;;;;;10.60;4.35;;;;;;;4.29;100.00;101948.53;5059824;28;20043;-68
2022/12/06 02:26:43;;;;;;;;;;;;;;;4.32;100.00;101951.75;5071169;28;20151;-69
2022/12/06 02:29:11;;;;;;;8.30;4.18;;;;;;;4.28;100.00;101950.31;5070651;28;19916;-68
2022/12/06 02:32:04;;;;;;;11.13;4.72;;;;;;;4.29;100.00;101951.16;5069293;28;20039;-68
2022/12/06 02:34:42;;;;;;;8.75;3.88;;;;;;;4.29;100.00;101946.72;5070362;28;20032;-68
2022/12/06 02:37:28;;;;;;;12.73;4.50;;;;;;;4.27;100.00;101945.16;5053713;28;20357;-68
2022/12/06 02:40:01;;;;;;;10.40;4.65;;;;;;;4.26;100.00;101941.69;5051279;28;20032;-68
2022/12/06 02:42:37;;;;;;;9.10;4.15;;;;;;;4.26;100.00;101944.31;5051299;28;20090;-68
2022/12/06 02:45:10;;;;;;;9.30;4.00;;;;;;;4.25;100.00;101931.28;5051139;28;20024;-68
2022/12/06 02:47:36;;;;;;;9.55;4.13;;;;;;;4.28;100.00;101931.84;5051186;28;20029;-68
2022/12/06 02:50:10;;;;;;;10.68;4.68;;;;;;;4.27;100.00;101935.47;5051167;28;20029;-68
2022/12/06 02:52:40;;;;;;;10.40;3.88;;;;;;;4.27;100.00;101931.97;5051013;28;20036;-68
2022/12/06 02:55:07;;;;;;;9.95;4.72;;;;;;;4.28;100.00;101931.84;5070091;28;20033;-68
2022/12/06 02:57:39;;;;;;;11.02;4.32;;;;;;;4.29;100.00;101930.88;5069804;28;20056;-68
2022/12/06 03:00:29;;;;;;;11.30;5.22;;;;;;;4.29;100.00;101928.22;5070022;28;20028;-68
2022/12/06 03:03:03;;;;;;;10.25;4.70;;;;;;;4.29;100.00;101930.03;5069950;28;20115;-68
2022/12/06 03:05:38;;;;;;;13.45;5.70;;;;;;;4.25;100.00;101923.34;5069497;28;20798;-68
2022/12/06 03:08:12;;;;;;;10.07;4.20;;;;;;;4.23;100.00;101920.84;5070350;28;20052;-68
2022/12/06 03:10:42;;;;;;;9.23;5.07;;;;;;;4.24;100.00;101921.66;5069655;28;20086;-68
2022/12/06 03:13:24;;;;;;;9.48;4.03;;;;;;;4.22;100.00;101916.53;5069599;28;20036;-68
2022/12/06 03:16:05;;;;;;;11.43;4.28;;;;;;;4.25;100.00;101926.81;5069122;28;20016;-68
2022/12/06 03:18:34;;;;;;;13.70;4.63;;;;;;;4.25;100.00;101934.75;5068238;28;20082;-68
2022/12/06 03:21:04;;;;;;;12.00;5.05;;;;;;;4.26;100.00;101932.94;5069429;28;20044;-68
2022/12/06 03:23:35;;;;;;;11.70;4.72;;;;;;;4.24;100.00;101930.41;5069505;28;20090;-68
2022/12/06 03:26:03;;;;;;;10.55;3.65;;;;;;;4.27;100.00;101924.91;5069097;28;20467;-68
2022/12/06 03:28:29;;;;;;;8.43;4.20;;;;;;;4.28;100.00;101933.66;5069446;28;20032;-68
2022/12/06 03:31:00;;;;;;;10.93;4.38;;;;;;;4.27;100.00;101939.88;5068637;28;20081;-68
2022/12/06 03:33:28;;;;;;;12.32;4.07;;;;;;;4.28;100.00;101939.75;5069437;28;20029;-68
2022/12/06 03:35:54;;;;;;;9.52;3.75;;;;;;;4.28;100.00;101934.47;5069347;28;20109;-68
2022/12/06 03:38:33;;;;;;;11.63;6.32;;;;;;;4.30;100.00;101937.00;5069546;28;20115;-68
2022/12/06 03:41:02;;;;;;;13.77;5.25;;;;;;;4.29;100.00;101935.31;5069319;28;20086;-68
2022/12/06 03:43:28;;;;;;;9.75;4.22;;;;;;;4.29;100.00;101930.03;5069340;28;20370;-68
2022/12/06 03:45:59;;;;;;;12.77;5.07;;;;;;;4.28;100.00;101928.38;5068106;28;20035;-68
2022/12/06 03:48:37;;;;;;;13.00;4.15;;;;;;;4.26;100.00;101925.00;5069282;28;20032;-68
2022/12/06 03:51:12;;;;;;;9.73;3.63;;;;;;;4.24;100.00;101927.78;5069325;28;20531;-68
2022/12/06 03:53:57;;;;;;;8.35;4.47;;;;;;;4.25;100.00;101926.00;5069115;28;20029;-68
2022/12/06 03:56:23;;;;;;;9.25;4.72;;;;;;;4.24;100.00;101933.06;5068901;28;20073;-68
2022/12/06 03:58:49;;;;;;;11.55;4.28;;;;;;;4.25;100.00;101932.09;5069166;28;20040;-68
2022/12/06 04:01:15;;;;;;;10.07;3.55;;;;;;;4.26;100.00;101931.13;5069174;28;20028;-68
2022/12/06 04:03:40;;;;;;;11.75;4.70;;;;;;;4.26;100.00;101930.28;5069076;28;20032;-68
2022/12/06 04:06:07;;;;;;;10.82;4.15;;;;;;;4.26;100.00;101935.56;5068642;28;20479;-68
2022/12/06 04:08:32;;;;;;;13.77;5.10;;;;;;;4.25;100.00;101934.75;5069096;28;20495;-68
2022/12/06 04:10:58;;;;;;;9.95;4.60;;;;;;;4.26;100.00;101930.28;5074150;28;20067;-68
2022/12/06 04:13:24;;;;;;;13.77;4.57;;;;;;;4.27;100.00;101934.59;5075599;28;20035;-68
2022/12/06 04:15:53;;;;;;;13.90;5.30;;;;;;;4.27;100.00;101918.75;5075623;28;20028;-68
2022/12/06 04:18:18;;;;;;;12.88;4.65;;;;;;;4.26;100.00;101928.47;5075755;28;20028;-68
2022/12/06 04:23:38;;;;;;;20.37;5.73;;;;;;;4.28;100.00;101928.38;5056422;28;20048;-68
2022/12/06 04:26:05;;;;;;;11.82;5.00;;;;;;;4.27;100.00;101916.97;5074329;28;20042;-68
2022/12/06 04:39:26;;;;;;;12.70;4.80;;;;;;;4.30;100.00;101934.38;5056657;28;20118;-69
2022/12/06 04:44:36;;;;;;;16.83;4.75;;;;;;;4.30;100.00;101940.47;5056623;28;20059;-69
2022/12/06 04:47:02;;;;;;;15.18;5.60;;;;;;;4.28;100.00;101925.72;5057949;28;20029;-69
2022/12/06 04:49:28;;;;;;;14.50;5.63;;;;;;;4.31;100.00;101933.38;5074603;28;20074;-68
2022/12/06 04:51:54;;;;;;;21.40;8.07;;;;;;;4.30;100.00;101932.56;5075295;28;20032;-68
2022/12/06 04:54:21;;;;;;;15.20;4.95;;;;;;;4.31;100.00;101934.22;5075208;28;20032;-69
2022/12/06 04:56:46;;;;;;;11.90;5.05;;;;;;;4.28;100.00;101926.56;5075225;28;20074;-68
2022/12/06 04:59:12;;;;;;;14.18;4.53;;;;;;;4.28;100.00;101923.09;5075308;28;20419;-68
2022/12/06 05:01:37;;;;;;;13.32;5.15;;;;;;;4.31;100.00;101926.31;5075235;28;20028;-68
2022/12/06 05:04:03;;;;;;;20.67;6.85;;;;;;;4.31;100.00;101928.94;5075175;28;20025;-69
2022/12/06 05:06:28;;;;;;;17.65;6.15;;;;;;;4.30;100.00;101926.44;5073733;28;20025;-68
2022/12/06 05:08:54;;;;;;;14.35;4.93;;;;;;;4.26;100.00;101922.38;5073116;28;20036;-68
2022/12/06 05:11:19;;;;;;;11.98;4.18;;;;;;;4.31;100.00;101922.81;5055130;28;20029;-68
2022/12/06 05:13:45;;;;;;;15.35;5.40;;;;;;;4.26;100.00;101925.00;5073841;28;20119;-68
2022/12/06 05:16:11;;;;;;;12.68;5.40;;;;;;;4.27;100.00;101930.19;5063452;28;20134;-68
2022/12/06 05:18:36;;;;;;;13.27;4.90;;;;;;;4.27;100.00;101922.25;5056088;28;20040;-68
2022/12/06 05:21:23;;;;;;;13.98;5.45;;;;;;;4.27;100.00;101921.41;5053570;28;20057;-68
2022/12/06 05:23:49;;;;;;;13.75;4.55;;;;;;;4.26;100.00;101917.09;5052588;28;20514;-68
2022/12/06 05:26:16;;;;;;;14.13;4.95;;;;;;;4.24;100.00;101933.06;5059145;28;20037;-68
2022/12/06 05:28:43;;;;;;;12.80;5.07;;;;;;;4.18;100.00;101918.56;5051519;28;20159;-68
2022/12/06 05:31:09;;;;;;;14.50;5.10;;;;;;;4.19;100.00;101916.75;5071202;28;20043;-68
2022/12/06 05:33:35;;;;;;;26.60;6.50;;;;;;;4.21;100.00;101919.28;5071561;28;20067;-68
2022/12/06 05:36:09;;;;;;;15.05;4.55;;;;;;;4.21;100.00;101917.47;5071743;28;20410;-68
2022/12/06 05:38:34;;;;;;;16.08;5.75;;;;;;;4.23;100.00;101926.09;5071151;28;20498;-68
2022/12/06 05:41:00;;;;;;;17.20;5.75;;;;;;;4.21;100.00;101919.28;5071586;28;20032;-68
2022/12/06 05:43:27;;;;;;;14.85;5.32;;;;;;;4.24;100.00;101926.94;5057541;28;20120;-68
2022/12/06 05:45:53;;;;;;;14.48;5.60;;;;;;;4.18;100.00;101915.09;5071534;28;20447;-68
2022/12/06 05:48:19;;;;;;;15.05;5.82;;;;;;;4.21;100.00;101920.13;5071389;28;20107;-68
2022/12/06 05:50:48;;;;;;;8.20;4.13;;;;;;;4.19;100.00;101916.75;5071232;28;20120;-68
2022/12/06 05:53:15;;;;;;;9.95;4.30;;;;;;;4.23;100.00;101926.09;5071192;28;20102;-68
2022/12/06 05:55:41;;;;;;;13.68;5.15;;;;;;;4.24;100.00;101922.50;5054884;28;20033;-68
2022/12/06 05:58:06;;;;;;;10.40;3.95;;;;;;;4.23;100.00;101920.84;5052116;28;20033;-68
2022/12/06 06:00:32;;;;;;;11.75;4.85;;;;;;;4.20;100.00;101918.44;5068920;28;20372;-68
2022/12/06 06:02:58;;;;;;;11.20;3.92;;;;;;;4.23;100.00;101923.47;5070986;28;20040;-68
2022/12/06 06:05:23;;;;;;;18.40;5.03;;;;;;;4.22;100.00;101927.09;5070981;28;20036;-68
2022/12/06 06:07:49;;;;;;;11.35;4.18;;;;;;;4.21;100.00;101933.31;5070862;28;20498;-68
2022/12/06 06:10:15;;;;;;;12.55;5.13;;;;;;;4.16;100.00;101917.03;5069473;28;20036;-68
2022/12/06 06:12:40;;;;;;;12.07;4.93;;;;;;;4.18;100.00;101928.28;5070692;28;20040;-68
2022/12/06 06:15:06;;;;;;;11.48;5.00;;;;;;;4.15;100.00;101929.38;5070093;28;20028;-68
2022/12/06 06:17:33;;;;;;;16.42;6.00;;;;;;;4.15;100.00;101932.03;5067488;28;20107;-68
2022/12/06 06:19:58;;;;;;;10.13;3.92;;;;;;;4.11;100.00;101937.69;5070409;28;20127;-68
2022/12/06 06:22:24;;;;;;;10.32;4.03;;;;;;;4.13;100.00;101936.59;5070054;28;20127;-68
2022/12/06 06:24:50;;;;;;;11.50;4.40;;;;;;;4.12;100.00;101928.81;5064173;28;20102;-68
2022/12/06 06:27:15;;;;;;;8.38;4.47;;;;;;;4.05;100.00;101920.56;5051588;28;20119;-68
2022/12/06 06:29:41;;;;;;;11.60;4.55;;;;;;;4.10;100.00;101939.50;5049800;28;20124;-68
2022/12/06 06:32:06;;;;;;;8.20;3.55;;;;;;;4.09;100.00;101937.84;5055755;28;20039;-68
2022/12/06 06:34:31;;;;;;;10.50;3.53;;;;;;;4.07;100.00;101937.13;5069908;28;20039;-68
2022/12/06 06:36:57;;;;;;;8.40;3.65;;;;;;;4.06;100.00;101930.16;5070415;28;20062;-68
2022/12/06 06:39:22;;;;;;;10.00;4.07;;;;;;;4.04;100.00;101936.53;5070509;28;20054;-68
2022/12/06 06:41:47;;;;;;;12.43;3.50;;;;;;;4.00;100.00;101935.09;5070529;28;20035;-68
2022/12/06 06:44:13;;;;;;;9.23;4.95;;;;;;;3.95;100.00;101924.91;5070577;28;20488;-68
2022/12/06 06:46:38;;;;;;;12.32;3.55;;;;;;;3.96;100.00;101926.63;5064190;28;20396;-68
2022/12/06 06:49:04;;;;;;;9.50;3.85;;;;;;;3.93;100.00;101935.63;5051015;28;20791;-68
2022/12/06 06:51:31;;;;;;;12.07;4.40;;;;;;;3.92;100.00;101930.47;5062014;28;20039;-68
2022/12/06 06:53:57;;;;;;;10.07;3.40;;;;;;;3.91;100.00;101929.63;5061152;28;20032;-68
2022/12/06 06:56:22;;;;;;;8.30;3.28;;;;;;;3.89;100.00;101925.44;5051053;28;20041;-68
2022/12/06 06:58:48;;;;;;;11.75;5.18;;;;;;;3.87;100.00;101924.72;5050918;28;20076;-68
2022/12/06 07:01:17;;;;;;;20.25;5.07;;;;;;;3.88;100.00;101918.50;5060502;28;20883;-68
2022/12/06 07:03:43;;;;;;;11.57;4.15;;;;;;;3.86;100.00;101923.06;5068142;28;20067;-68
2022/12/06 07:06:09;;;;;;;9.30;4.00;;;;;;;3.86;100.00;101920.41;5059561;28;20075;-67
2022/12/06 07:08:35;;;;;;;12.65;4.82;;;;;;;3.83;100.00;101915.41;5069790;28;20028;-68
2022/12/06 07:11:01;;;;;;;10.90;3.97;;;;;;;3.85;100.00;101919.59;5063564;28;20055;-68
2022/12/06 07:13:27;;;;;;;10.38;4.85;;;;;;;3.84;100.00;101920.53;5055428;28;20408;-68
2022/12/06 07:15:52;;;;;;;10.38;3.72;;;;;;;3.83;100.00;101915.41;5050515;28;20104;-68
2022/12/06 07:18:19;;;;;;;8.38;3.50;;;;;;;3.78;100.00;101910.50;5059111;28;20054;-68
2022/12/06 07:20:45;;;;;;;13.02;4.50;;;;;;;3.81;100.00;101922.59;5069333;28;20113;-68
2022/12/06 07:23:12;;;;;;;16.35;4.00;;;;;;;3.79;100.00;101925.34;5064766;28;20080;-68
2022/12/06 07:25:37;;;;;;;13.93;4.75;;;;;;;3.80;100.00;101928.81;5050254;28;20051;-67
2022/12/06 07:28:04;;;;;;;12.93;5.70;;;;;;;3.79;100.00;101921.88;5050198;28;20028;-68
2022/12/06 07:30:29;;;;;;;12.18;4.60;;;;;;;3.78;100.00;101928.97;5050456;28;20028;-68
2022/12/06 07:32:55;;;;;;;15.18;4.30;;;;;;;3.78;100.00;101926.31;5049303;28;20029;-68
2022/12/06 07:35:20;;;;;;;13.93;4.50;;;;;;;3.78;100.00;101926.31;5050362;28;20112;-68
2022/12/06 07:37:46;;;;;;;11.90;3.50;;;;;;;3.78;100.00;101928.97;5060660;28;20036;-68
2022/12/06 07:40:13;;;;;;;9.55;3.75;;;;;;;3.79;100.00;101932.44;5069414;28;20082;-67
2022/12/06 07:45:22;;;;;;;9.73;4.13;;;;;;;3.81;100.00;101922.59;5067610;28;20087;-67
2022/12/06 07:47:47;;;;;;;7.72;3.08;;;;;;;3.82;100.00;101926.91;5067952;28;20107;-67
2022/12/06 07:50:15;;;;;;;6.50;2.75;;;;;;;3.82;100.00;101930.38;5069170;28;20044;-68
2022/12/06 07:52:41;;;;;;;7.90;3.63;;;;;;;3.83;100.00;101936.50;5069041;28;20116;-68
2022/12/06 07:55:09;;;;;;;10.77;4.53;;;;;;;3.83;100.00;101933.88;5067213;28;20071;-67
2022/12/06 07:57:34;;;;;;;10.05;4.05;;;;;;;3.85;100.00;101939.84;5068505;28;20034;-67
2022/12/06 08:00:00;;;;;;;11.25;3.90;;;;;;;3.84;100.00;101946.91;5068416;28;20028;-67
2022/12/06 08:02:27;;;;;;;7.70;3.15;;;;;;;3.87;100.00;101953.75;5060226;28;20024;-68
2022/12/06 08:04:53;;;;;;;10.65;4.13;;;;;;;3.88;100.00;101943.09;5049624;28;20107;-67
2022/12/06 08:07:19;;;;;;;10.32;2.92;;;;;;;3.87;100.00;101954.56;5049883;28;20033;-68
2022/12/06 08:09:45;;;;;;;10.73;2.97;;;;;;;3.87;100.00;101945.81;5056017;28;20059;-67
2022/12/06 08:12:11;;;;;;;14.05;4.15;;;;;;;3.86;100.00;101945.00;5049287;28;20512;-67
2022/12/06 08:14:36;;;;;;;7.10;2.55;;;;;;;3.91;100.00;101955.19;5049632;28;20418;-67
2022/12/06 08:17:04;;;;;;;7.35;3.00;;;;;;;3.94;100.00;101947.84;5049836;28;20033;-67
2022/12/06 08:19:29;;;;;;;8.30;3.38;;;;;;;3.93;100.00;101943.53;5048514;28;20040;-68
2022/12/06 08:21:55;;;;;;;9.10;3.83;;;;;;;3.92;100.00;101939.22;5049741;28;20421;-67
2022/12/06 08:24:21;;;;;;;7.05;3.05;;;;;;;4.00;100.00;101948.31;5049666;28;20053;-68
2022/12/06 08:26:47;;;;;;;10.40;3.50;;;;;;;4.00;100.00;101949.13;5049692;28;20037;-68
2022/12/06 08:29:13;;;;;;;9.18;2.88;;;;;;;4.02;100.00;101955.13;5050891;28;20543;-68
2022/12/06 08:31:38;;;;;;;7.03;2.90;;;;;;;4.03;100.00;101948.88;5056025;28;20093;-68
2022/12/06 08:34:04;;;;;;;7.78;3.13;;;;;;;4.05;100.00;101949.59;5052535;28;20036;-68
2022/12/06 08:36:30;;;;;;;6.78;3.00;;;;;;;4.07;100.00;101946.84;5052184;28;20933;-68
2022/12/06 08:38:58;;;;;;;5.45;2.88;;;;;;;4.12;100.00;101945.50;5060024;28;20115;-67
2022/12/06 08:44:11;;;;;;;8.30;3.10;;;;;;;4.18;100.00;101944.97;5068993;28;20956;-67
2022/12/06 08:46:37;;;;;;;6.30;2.65;;;;;;;4.24;100.00;101945.44;5068697;28;20577;-67
2022/12/06 08:49:02;;;;;;;10.70;3.40;;;;;;;4.21;100.00;101938.59;5068504;28;20054;-67
2022/12/06 08:51:29;;;;;;;9.10;3.03;;;;;;;4.26;100.00;101960.16;5068442;28;20052;-67
2022/12/06 08:53:55;;;;;;;9.98;3.42;;;;;;;4.23;100.00;101949.03;5067337;28;20032;-67
2022/12/06 08:56:21;;;;;;;10.10;4.65;;;;;;;4.26;100.00;101952.25;5068769;28;20103;-67
2022/12/06 08:58:47;;;;;;;10.32;4.43;;;;;;;4.28;100.00;101952.97;5072280;28;20031;-67
2022/12/06 09:01:17;;;;;;;10.35;4.22;;;;;;;4.28;100.00;101963.53;5072460;28;20024;-67
2022/12/06 09:03:42;;;;;;;10.52;3.10;;;;;;;4.28;100.00;101967.97;5071977;28;20034;-67
2022/12/06 09:06:09;;;;;;;11.52;4.07;;;;;;;4.22;100.00;101961.41;5072168;28;20103;-67
2022/12/06 09:08:35;;;;;;;15.55;4.90;;;;;;;4.17;100.00;101963.59;5071967;28;20037;-67
2022/12/06 09:11:00;;;;;;;11.65;4.68;;;;;;;4.12;100.00;101965.78;5069422;28;20485;-67
2022/12/06 09:13:26;;;;;;;11.18;4.03;;;;;;;4.07;100.00;101973.25;5071560;28;20064;-67
2022/12/06 09:15:51;;;;;;;11.05;4.15;;;;;;;4.00;100.00;101967.63;5071300;28;20036;-67
2022/12/06 09:18:16;;;;;;;11.57;3.72;;;;;;;3.94;100.00;101979.50;5070580;28;20068;-67
2022/12/06 09:20:42;;;;;;;8.63;3.97;;;;;;;3.89;100.00;101983.50;5071640;28;20080;-67
2022/12/06 09:23:07;;;;;;;9.93;4.68;;;;;;;3.81;100.00;101976.19;5071885;28;20025;-67
2022/12/06 09:25:33;;;;;;;10.52;3.47;;;;;;;3.74;100.00;101975.84;5071997;28;20904;-67
2022/12/06 09:27:59;;;;;;;7.43;3.55;;;;;;;3.73;100.00;101976.81;5070978;28;20064;-67
2022/12/06 09:30:24;;;;;;;7.88;3.50;;;;;;;3.72;100.00;101974.28;5071348;28;20032;-67
2022/12/06 09:32:50;;;;;;;11.65;3.72;;;;;;;3.85;100.00;101980.28;5071687;28;20024;-67
2022/12/06 09:35:15;;;;;;;7.75;3.00;;;;;;;3.93;100.00;101982.28;5071522;28;20036;-67
2022/12/06 09:37:41;;;;;;;5.45;2.60;;;;;;;3.99;100.00;101979.16;5071115;28;20031;-67
2022/12/06 09:40:15;;;;;;;7.55;3.72;;;;;;;4.04;100.00;101986.69;5056808;28;20055;-66
2022/12/06 09:42:56;;;;;;;6.80;2.90;;;;;;;4.08;100.00;101974.91;5048075;28;20062;-67
2022/12/06 09:45:31;;;;;;;6.10;2.78;;;;;;;4.10;100.00;101973.81;5056491;28;20029;-67
2022/12/06 09:48:29;;;;;;;8.13;2.88;;;;;;;4.17;100.00;101982.06;5056358;28;20685;-68
2022/12/06 09:51:32;;;;;;;9.38;3.15;;;;;;;4.22;100.00;101985.19;5053069;28;20047;-68
2022/12/06 09:54:16;;;;;;;6.28;2.45;;;;;;;4.24;100.00;101977.09;5056870;28;20043;-68
2022/12/06 09:56:53;;;;;;;8.07;2.97;;;;;;;4.28;100.00;101974.09;5056235;28;21186;-68
2022/12/06 10:00:01;;;;;;;6.18;2.83;;;;;;;4.38;100.00;101976.81;5056544;28;20071;-67
2022/12/06 10:02:38;;;;;;;8.35;3.00;;;;;;;4.41;100.00;101966.00;5035814;28;20041;-68
2022/12/06 10:05:54;;;;;;;9.45;3.30;;;;;;;4.45;100.00;101970.03;5057284;28;20040;-68
2022/12/06 10:08:38;;;;;;;7.35;3.05;;;;;;;4.48;100.00;101961.00;5055353;28;20039;-67
2022/12/06 10:11:06;;;;;;;5.53;3.35;;;;;;;4.53;100.00;101962.31;5055527;28;20083;-68
2022/12/06 10:13:59;;;;;;;6.85;2.72;;;;;;;4.57;100.00;101958.44;5055955;28;20038;-68
2022/12/06 10:16:24;;;;;;;12.32;4.05;;;;;;;4.61;100.00;101959.00;5055834;28;20033;-68
2022/12/06 10:18:59;;;;;;;6.32;2.90;;;;;;;4.66;100.00;101954.16;5054329;28;20021;-68
2022/12/06 10:21:41;;;;;;;4.05;2.40;;;;;;;4.72;100.00;101958.13;5056542;28;20040;-68
2022/12/06 10:24:18;;;;;;;6.03;2.50;;;;;;;4.72;100.00;101964.22;5063963;28;20357;-68
2022/12/06 10:26:52;;;;;;;5.38;2.05;;;;;;;4.78;100.00;101966.34;5068999;28;20044;-68
2022/12/06 10:29:20;;;;;;;5.50;3.13;;;;;;;4.80;100.00;101956.47;5055410;28;20021;-68
2022/12/06 10:31:52;;;;;;;4.63;2.88;;;;;;;4.84;100.00;101965.81;5065246;28;20095;-68
2022/12/06 10:34:25;;;;;;;4.57;2.47;;;;;;;4.87;100.00;101961.22;5070459;28;20075;-68
2022/12/06 10:37:16;;;;;;;6.03;2.13;;;;;;;4.87;100.00;101953.31;5060349;28;20040;-68
2022/12/06 10:39:44;;;;;;;6.38;3.05;;;;;;;4.93;100.00;101963.38;5065719;28;20102;-68
2022/12/06 10:42:33;;;;;;;8.60;4.10;;;;;;;4.98;100.00;101967.28;5059646;28;20025;-69
2022/12/06 10:48:35;;;;;;;5.65;2.63;;;;;;;5.09;100.00;101962.88;5053065;28;20067;-68
2022/12/06 10:51:11;;;;;;;7.57;3.10;;;;;;;5.08;100.00;101956.72;5060178;28;20388;-68
2022/12/06 10:53:47;;;;;;;7.50;3.00;;;;;;;5.09;100.00;101950.50;5053426;28;20033;-68
2022/12/06 10:56:36;;;;;;;7.78;2.92;;;;;;;5.22;100.00;101952.91;5054704;28;20032;-68
2022/12/06 10:59:07;;;;;;;6.97;2.75;;;;;;;5.27;100.00;101950.69;5055892;28;20480;-68
2022/12/06 11:01:40;;;;;;;5.60;3.03;;;;;;;5.28;100.00;101945.25;5049735;28;20029;-68
2022/12/06 11:04:15;;;;;;;6.55;3.53;;;;;;;5.34;100.00;101953.63;5061784;28;20017;-68
2022/12/06 11:07:04;;;;;;;4.78;2.38;;;;;;;5.35;100.00;101948.22;5064146;28;20054;-68
2022/12/06 11:09:39;;;;;;;9.57;3.30;;;;;;;5.37;100.00;101954.22;5064415;28;20491;-68
2022/12/06 11:12:29;;;;;;;5.80;2.25;;;;;;;5.43;100.00;101958.13;5052667;28;20032;-68
2022/12/06 11:15:15;;;;;;;4.35;2.42;;;;;;;5.46;100.00;101949.91;5050798;28;20123;-67
2022/12/06 11:17:51;;;;;;;10.73;4.50;;;;;;;5.47;100.00;101959.50;5046960;28;20044;-67
2022/12/06 11:20:31;;;;;;;6.72;2.95;;;;;;;5.49;100.00;101952.28;5069417;28;20068;-67
2022/12/06 11:23:09;;;;;;;5.63;2.47;;;;;;;5.54;100.00;101949.22;5069527;28;20044;-67
2022/12/06 11:25:59;;;;;;;6.97;2.30;;;;;;;5.58;100.00;101950.59;5069597;28;20368;-67
2022/12/06 11:28:48;;;;;;;3.72;2.20;;;;;;;5.62;100.00;101944.91;5069597;28;20058;-67
2022/12/06 11:31:27;;;;;;;4.95;2.38;;;;;;;5.64;100.00;101936.84;5069572;28;20103;-67
2022/12/06 11:33:52;;;;;;;4.70;2.42;;;;;;;5.71;100.00;101944.09;5068174;28;20034;-67
2022/12/06 11:36:20;;;;;;;6.63;2.15;;;;;;;5.76;100.00;101942.84;5069335;28;20017;-67
2022/12/06 11:38:45;;;;;;;4.65;2.00;;;;;;;5.77;100.00;101936.59;5069102;28;20052;-67
2022/12/06 11:41:19;;;;;;;5.15;2.10;;;;;;;5.78;100.00;101930.31;5068862;28;20063;-67
2022/12/06 11:43:45;;;;;;;3.20;2.10;;;;;;;5.86;100.00;101933.09;5069403;28;20020;-67
2022/12/06 11:46:13;;;;;;;4.05;1.98;;;;;;;5.85;100.00;101936.72;5068015;28;20029;-67
2022/12/06 11:48:39;;;;;;;4.68;2.10;;;;;;;5.80;100.00;101928.34;5069374;28;20063;-67
2022/12/06 11:51:13;;;;;;;5.95;2.10;;;;;;;5.83;100.00;101934.19;5069347;28;20052;-67
2022/12/06 11:53:49;;;;;;;4.63;2.25;;;;;;;5.91;100.00;101929.03;5069125;28;20988;-67
2022/12/06 11:56:22;;;;;;;3.50;2.30;;;;;;;5.96;100.00;101933.13;5051931;28;20098;-69
2022/12/06 11:59:01;;;;;;;4.15;2.03;;;;;;;5.89;99.12;101925.72;5049961;28;20025;-69